sensor_id;sensor_type;location;lat;lon;timestamp;temperature;humidity
38941;DHT22;43236;47.208;7.518;2024-03-06T00:01:48;9.90;92.70
38941;DHT22;43236;47.208;7.518;2024-03-06T00:04:35;9.90;92.50
38941;DHT22;43236;47.208;7.518;2024-03-06T00:07:22;9.90;92.70
38941;DHT22;43236;47.208;7.518;2024-03-06T00:10:09;9.90;92.90
38941;DHT22;43236;47.208;7.518;2024-03-06T00:12:56;9.90;92.60
38941;DHT22;43236;47.208;7.518;2024-03-06T00:15:44;9.90;92.90
38941;DHT22;43236;47.208;7.518;2024-03-06T00:18:32;9.80;93.30
38941;DHT22;43236;47.208;7.518;2024-03-06T00:21:19;9.90;93.10
38941;DHT22;43236;47.208;7.518;2024-03-06T00:24:06;9.80;92.90
38941;DHT22;43236;47.208;7.518;2024-03-06T00:26:53;9.80;93.10
38941;DHT22;43236;47.208;7.518;2024-03-06T00:29:40;9.80;92.80
38941;DHT22;43236;47.208;7.518;2024-03-06T00:32:29;9.80;92.80
38941;DHT22;43236;47.208;7.518;2024-03-06T00:35:16;9.90;93.00
38941;DHT22;43236;47.208;7.518;2024-03-06T00:38:03;9.90;93.20
38941;DHT22;43236;47.208;7.518;2024-03-06T00:40:52;9.90;92.90
38941;DHT22;43236;47.208;7.518;2024-03-06T00:43:39;9.90;93.50
38941;DHT22;43236;47.208;7.518;2024-03-06T00:46:26;9.90;93.10
38941;DHT22;43236;47.208;7.518;2024-03-06T00:49:14;9.90;93.10
38941;DHT22;43236;47.208;7.518;2024-03-06T00:52:01;9.90;93.10
38941;DHT22;43236;47.208;7.518;2024-03-06T00:54:49;9.90;93.20
38941;DHT22;43236;47.208;7.518;2024-03-06T00:57:36;9.90;93.10
38941;DHT22;43236;47.208;7.518;2024-03-06T01:00:23;9.90;93.20
38941;DHT22;43236;47.208;7.518;2024-03-06T01:03:10;9.80;93.30
38941;DHT22;43236;47.208;7.518;2024-03-06T01:05:59;9.80;93.10
38941;DHT22;43236;47.208;7.518;2024-03-06T01:08:46;9.80;93.20
38941;DHT22;43236;47.208;7.518;2024-03-06T01:11:33;9.80;93.40
38941;DHT22;43236;47.208;7.518;2024-03-06T01:14:20;9.80;93.30
38941;DHT22;43236;47.208;7.518;2024-03-06T01:17:07;9.80;93.20
38941;DHT22;43236;47.208;7.518;2024-03-06T01:19:54;9.80;93.00
38941;DHT22;43236;47.208;7.518;2024-03-06T01:22:42;9.80;93.30
38941;DHT22;43236;47.208;7.518;2024-03-06T01:25:29;9.80;93.30
38941;DHT22;43236;47.208;7.518;2024-03-06T01:28:16;9.70;93.40
38941;DHT22;43236;47.208;7.518;2024-03-06T01:31:04;9.80;93.40
38941;DHT22;43236;47.208;7.518;2024-03-06T01:33:51;9.80;93.30
38941;DHT22;43236;47.208;7.518;2024-03-06T01:36:38;9.80;93.30
38941;DHT22;43236;47.208;7.518;2024-03-06T01:39:27;9.80;93.30
38941;DHT22;43236;47.208;7.518;2024-03-06T01:42:16;9.80;93.30
38941;DHT22;43236;47.208;7.518;2024-03-06T01:45:04;9.80;93.40
38941;DHT22;43236;47.208;7.518;2024-03-06T01:47:52;9.80;93.30
38941;DHT22;43236;47.208;7.518;2024-03-06T01:50:40;9.80;93.50
38941;DHT22;43236;47.208;7.518;2024-03-06T01:53:29;9.80;93.30
38941;DHT22;43236;47.208;7.518;2024-03-06T01:56:19;9.80;93.30
38941;DHT22;43236;47.208;7.518;2024-03-06T01:59:06;9.80;93.60
38941;DHT22;43236;47.208;7.518;2024-03-06T02:01:54;9.80;93.50
38941;DHT22;43236;47.208;7.518;2024-03-06T02:04:41;9.80;93.40
38941;DHT22;43236;47.208;7.518;2024-03-06T02:07:28;9.80;93.40
38941;DHT22;43236;47.208;7.518;2024-03-06T02:10:18;9.80;93.60
38941;DHT22;43236;47.208;7.518;2024-03-06T02:13:06;9.80;93.50
38941;DHT22;43236;47.208;7.518;2024-03-06T02:15:53;9.80;93.50
38941;DHT22;43236;47.208;7.518;2024-03-06T02:18:51;9.80;93.30
38941;DHT22;43236;47.208;7.518;2024-03-06T02:21:39;9.80;93.30
38941;DHT22;43236;47.208;7.518;2024-03-06T02:24:27;9.80;93.30
38941;DHT22;43236;47.208;7.518;2024-03-06T02:27:14;9.80;93.30
38941;DHT22;43236;47.208;7.518;2024-03-06T02:30:02;9.80;93.50
38941;DHT22;43236;47.208;7.518;2024-03-06T02:32:49;9.80;93.60
38941;DHT22;43236;47.208;7.518;2024-03-06T02:35:37;9.80;93.50
38941;DHT22;43236;47.208;7.518;2024-03-06T02:38:26;9.80;93.40
38941;DHT22;43236;47.208;7.518;2024-03-06T02:41:14;9.70;93.30
38941;DHT22;43236;47.208;7.518;2024-03-06T02:44:01;9.70;93.30
38941;DHT22;43236;47.208;7.518;2024-03-06T02:46:48;9.70;93.40
38941;DHT22;43236;47.208;7.518;2024-03-06T02:49:36;9.70;93.40
38941;DHT22;43236;47.208;7.518;2024-03-06T02:52:23;9.70;93.30
38941;DHT22;43236;47.208;7.518;2024-03-06T02:55:11;9.70;93.50
38941;DHT22;43236;47.208;7.518;2024-03-06T02:58:01;9.70;93.80
38941;DHT22;43236;47.208;7.518;2024-03-06T03:00:49;9.70;93.50
38941;DHT22;43236;47.208;7.518;2024-03-06T03:03:36;9.70;93.40
38941;DHT22;43236;47.208;7.518;2024-03-06T03:06:23;9.70;93.70
38941;DHT22;43236;47.208;7.518;2024-03-06T03:09:10;9.70;93.60
38941;DHT22;43236;47.208;7.518;2024-03-06T03:11:59;9.70;93.70
38941;DHT22;43236;47.208;7.518;2024-03-06T03:14:46;9.70;93.60
38941;DHT22;43236;47.208;7.518;2024-03-06T03:17:33;9.70;93.40
38941;DHT22;43236;47.208;7.518;2024-03-06T03:20:20;9.70;93.60
38941;DHT22;43236;47.208;7.518;2024-03-06T03:23:07;9.60;93.60
38941;DHT22;43236;47.208;7.518;2024-03-06T03:25:57;9.60;93.50
38941;DHT22;43236;47.208;7.518;2024-03-06T03:28:46;9.70;93.90
38941;DHT22;43236;47.208;7.518;2024-03-06T03:31:33;9.70;93.90
38941;DHT22;43236;47.208;7.518;2024-03-06T03:34:22;9.70;93.80
38941;DHT22;43236;47.208;7.518;2024-03-06T03:37:09;9.70;93.80
38941;DHT22;43236;47.208;7.518;2024-03-06T03:39:56;9.70;93.70
38941;DHT22;43236;47.208;7.518;2024-03-06T03:42:43;9.70;93.90
38941;DHT22;43236;47.208;7.518;2024-03-06T03:45:32;9.70;93.90
38941;DHT22;43236;47.208;7.518;2024-03-06T03:48:20;9.70;93.60
38941;DHT22;43236;47.208;7.518;2024-03-06T03:51:07;9.70;93.60
38941;DHT22;43236;47.208;7.518;2024-03-06T03:53:54;9.70;93.80
38941;DHT22;43236;47.208;7.518;2024-03-06T03:56:41;9.70;94.00
38941;DHT22;43236;47.208;7.518;2024-03-06T03:59:28;9.70;93.60
38941;DHT22;43236;47.208;7.518;2024-03-06T04:02:16;9.70;93.70
38941;DHT22;43236;47.208;7.518;2024-03-06T04:05:04;9.70;93.70
38941;DHT22;43236;47.208;7.518;2024-03-06T04:07:51;9.70;93.60
38941;DHT22;43236;47.208;7.518;2024-03-06T04:10:38;9.70;94.20
38941;DHT22;43236;47.208;7.518;2024-03-06T04:13:25;9.70;93.90
38941;DHT22;43236;47.208;7.518;2024-03-06T04:16:16;9.70;93.70
38941;DHT22;43236;47.208;7.518;2024-03-06T04:19:04;9.70;93.60
38941;DHT22;43236;47.208;7.518;2024-03-06T04:21:51;9.70;93.40
38941;DHT22;43236;47.208;7.518;2024-03-06T04:24:41;9.70;93.70
38941;DHT22;43236;47.208;7.518;2024-03-06T04:27:28;9.70;93.60
38941;DHT22;43236;47.208;7.518;2024-03-06T04:30:15;9.70;93.40
38941;DHT22;43236;47.208;7.518;2024-03-06T04:33:02;9.70;93.60
38941;DHT22;43236;47.208;7.518;2024-03-06T04:35:51;9.70;93.40
38941;DHT22;43236;47.208;7.518;2024-03-06T04:38:38;9.70;93.30
38941;DHT22;43236;47.208;7.518;2024-03-06T04:41:26;9.70;93.30
38941;DHT22;43236;47.208;7.518;2024-03-06T04:44:13;9.70;93.60
38941;DHT22;43236;47.208;7.518;2024-03-06T04:47:00;9.70;93.30
38941;DHT22;43236;47.208;7.518;2024-03-06T04:49:47;9.70;93.30
38941;DHT22;43236;47.208;7.518;2024-03-06T04:52:37;9.70;93.40
38941;DHT22;43236;47.208;7.518;2024-03-06T04:55:24;9.70;93.30
38941;DHT22;43236;47.208;7.518;2024-03-06T04:58:11;9.70;93.40
38941;DHT22;43236;47.208;7.518;2024-03-06T05:00:58;9.70;93.40
38941;DHT22;43236;47.208;7.518;2024-03-06T05:03:45;9.80;93.60
38941;DHT22;43236;47.208;7.518;2024-03-06T05:06:32;9.70;93.30
38941;DHT22;43236;47.208;7.518;2024-03-06T05:09:20;9.70;93.60
38941;DHT22;43236;47.208;7.518;2024-03-06T05:12:08;9.70;93.40
38941;DHT22;43236;47.208;7.518;2024-03-06T05:14:55;9.60;93.20
38941;DHT22;43236;47.208;7.518;2024-03-06T05:17:42;9.60;93.40
38941;DHT22;43236;47.208;7.518;2024-03-06T05:20:29;9.60;93.50
38941;DHT22;43236;47.208;7.518;2024-03-06T05:23:17;9.60;93.70
38941;DHT22;43236;47.208;7.518;2024-03-06T05:26:06;9.60;93.80
38941;DHT22;43236;47.208;7.518;2024-03-06T05:28:53;9.60;93.50
38941;DHT22;43236;47.208;7.518;2024-03-06T05:31:40;9.60;93.40
38941;DHT22;43236;47.208;7.518;2024-03-06T05:34:27;9.50;93.40
38941;DHT22;43236;47.208;7.518;2024-03-06T05:37:14;9.50;93.90
38941;DHT22;43236;47.208;7.518;2024-03-06T05:40:01;9.60;93.80
38941;DHT22;43236;47.208;7.518;2024-03-06T05:42:51;9.70;93.80
38941;DHT22;43236;47.208;7.518;2024-03-06T05:45:38;9.60;93.50
38941;DHT22;43236;47.208;7.518;2024-03-06T05:48:25;9.70;93.40
38941;DHT22;43236;47.208;7.518;2024-03-06T05:51:13;9.70;93.70
38941;DHT22;43236;47.208;7.518;2024-03-06T05:54:00;9.70;93.70
38941;DHT22;43236;47.208;7.518;2024-03-06T05:56:47;9.60;93.50
38941;DHT22;43236;47.208;7.518;2024-03-06T05:59:36;9.70;93.90
38941;DHT22;43236;47.208;7.518;2024-03-06T06:02:23;9.60;93.80
38941;DHT22;43236;47.208;7.518;2024-03-06T06:05:10;9.60;93.60
38941;DHT22;43236;47.208;7.518;2024-03-06T06:07:57;9.60;93.40
38941;DHT22;43236;47.208;7.518;2024-03-06T06:10:44;9.60;93.40
38941;DHT22;43236;47.208;7.518;2024-03-06T06:13:31;9.60;93.70
38941;DHT22;43236;47.208;7.518;2024-03-06T06:16:20;9.60;94.00
38941;DHT22;43236;47.208;7.518;2024-03-06T06:19:07;9.60;93.60
38941;DHT22;43236;47.208;7.518;2024-03-06T06:21:54;9.60;93.80
38941;DHT22;43236;47.208;7.518;2024-03-06T06:24:41;9.60;93.90
38941;DHT22;43236;47.208;7.518;2024-03-06T06:27:28;9.60;93.90
38941;DHT22;43236;47.208;7.518;2024-03-06T06:30:16;9.60;93.80
38941;DHT22;43236;47.208;7.518;2024-03-06T06:33:05;9.60;93.50
38941;DHT22;43236;47.208;7.518;2024-03-06T06:35:52;9.50;93.60
38941;DHT22;43236;47.208;7.518;2024-03-06T06:38:39;9.60;93.90
38941;DHT22;43236;47.208;7.518;2024-03-06T06:41:26;9.60;93.80
38941;DHT22;43236;47.208;7.518;2024-03-06T06:44:13;9.60;93.70
38941;DHT22;43236;47.208;7.518;2024-03-06T06:47:00;9.60;93.50
38941;DHT22;43236;47.208;7.518;2024-03-06T06:49:49;9.60;93.50
38941;DHT22;43236;47.208;7.518;2024-03-06T06:52:36;9.60;93.70
38941;DHT22;43236;47.208;7.518;2024-03-06T06:55:23;9.50;93.60
38941;DHT22;43236;47.208;7.518;2024-03-06T06:58:11;9.60;93.70
38941;DHT22;43236;47.208;7.518;2024-03-06T07:00:58;9.50;93.60
38941;DHT22;43236;47.208;7.518;2024-03-06T07:03:46;9.50;93.80
38941;DHT22;43236;47.208;7.518;2024-03-06T07:06:34;9.60;93.90
38941;DHT22;43236;47.208;7.518;2024-03-06T07:09:21;9.60;93.80
38941;DHT22;43236;47.208;7.518;2024-03-06T07:12:08;9.60;93.60
38941;DHT22;43236;47.208;7.518;2024-03-06T07:14:55;9.60;93.60
38941;DHT22;43236;47.208;7.518;2024-03-06T07:17:42;9.60;93.80
38941;DHT22;43236;47.208;7.518;2024-03-06T07:20:30;9.60;93.70
38941;DHT22;43236;47.208;7.518;2024-03-06T07:23:18;9.60;93.70
38941;DHT22;43236;47.208;7.518;2024-03-06T07:26:05;9.60;93.60
38941;DHT22;43236;47.208;7.518;2024-03-06T07:28:52;9.60;93.80
38941;DHT22;43236;47.208;7.518;2024-03-06T07:31:40;9.60;93.70
38941;DHT22;43236;47.208;7.518;2024-03-06T07:34:27;9.60;93.80
38941;DHT22;43236;47.208;7.518;2024-03-06T07:37:14;9.60;93.80
38941;DHT22;43236;47.208;7.518;2024-03-06T07:40:03;9.60;93.70
38941;DHT22;43236;47.208;7.518;2024-03-06T07:42:50;9.60;93.80
38941;DHT22;43236;47.208;7.518;2024-03-06T07:45:37;9.60;93.70
38941;DHT22;43236;47.208;7.518;2024-03-06T07:48:25;9.60;94.00
38941;DHT22;43236;47.208;7.518;2024-03-06T07:51:12;9.60;93.70
38941;DHT22;43236;47.208;7.518;2024-03-06T07:53:59;9.70;93.80
38941;DHT22;43236;47.208;7.518;2024-03-06T07:56:48;9.70;93.80
38941;DHT22;43236;47.208;7.518;2024-03-06T07:59:35;9.70;93.50
38941;DHT22;43236;47.208;7.518;2024-03-06T08:02:22;9.70;93.70
38941;DHT22;43236;47.208;7.518;2024-03-06T08:05:10;9.70;93.40
38941;DHT22;43236;47.208;7.518;2024-03-06T08:07:58;9.80;93.80
38941;DHT22;43236;47.208;7.518;2024-03-06T08:10:45;9.80;93.90
38941;DHT22;43236;47.208;7.518;2024-03-06T08:13:33;9.80;94.00
38941;DHT22;43236;47.208;7.518;2024-03-06T08:16:20;9.90;94.10
38941;DHT22;43236;47.208;7.518;2024-03-06T08:19:07;9.90;94.00
38941;DHT22;43236;47.208;7.518;2024-03-06T08:21:55;9.90;93.80
38941;DHT22;43236;47.208;7.518;2024-03-06T08:24:42;10.00;93.40
38941;DHT22;43236;47.208;7.518;2024-03-06T08:27:29;10.00;93.30
38941;DHT22;43236;47.208;7.518;2024-03-06T08:30:17;10.10;93.40
38941;DHT22;43236;47.208;7.518;2024-03-06T08:33:05;10.10;93.50
38941;DHT22;43236;47.208;7.518;2024-03-06T08:35:52;10.20;93.40
38941;DHT22;43236;47.208;7.518;2024-03-06T08:38:39;10.20;93.10
38941;DHT22;43236;47.208;7.518;2024-03-06T08:41:26;10.30;93.40
38941;DHT22;43236;47.208;7.518;2024-03-06T08:44:13;10.30;93.40
38941;DHT22;43236;47.208;7.518;2024-03-06T08:47:02;10.30;93.00
38941;DHT22;43236;47.208;7.518;2024-03-06T08:49:49;10.30;92.80
38941;DHT22;43236;47.208;7.518;2024-03-06T08:52:36;10.30;92.60
38941;DHT22;43236;47.208;7.518;2024-03-06T08:55:24;10.30;92.80
38941;DHT22;43236;47.208;7.518;2024-03-06T08:58:11;10.30;92.70
38941;DHT22;43236;47.208;7.518;2024-03-06T09:00:59;10.40;93.00
38941;DHT22;43236;47.208;7.518;2024-03-06T09:03:48;10.40;93.00
38941;DHT22;43236;47.208;7.518;2024-03-06T09:06:35;10.40;92.60
38941;DHT22;43236;47.208;7.518;2024-03-06T09:09:22;10.40;92.50
38941;DHT22;43236;47.208;7.518;2024-03-06T09:12:10;10.50;92.80
38941;DHT22;43236;47.208;7.518;2024-03-06T09:14:57;10.40;92.70
38941;DHT22;43236;47.208;7.518;2024-03-06T09:17:46;10.50;93.00
38941;DHT22;43236;47.208;7.518;2024-03-06T09:20:35;10.50;92.90
38941;DHT22;43236;47.208;7.518;2024-03-06T09:23:22;10.50;92.10
38941;DHT22;43236;47.208;7.518;2024-03-06T09:26:09;10.50;92.40
38941;DHT22;43236;47.208;7.518;2024-03-06T09:28:56;10.60;93.50
38941;DHT22;43236;47.208;7.518;2024-03-06T09:31:43;10.60;93.10
38941;DHT22;43236;47.208;7.518;2024-03-06T09:34:30;10.60;92.80
38941;DHT22;43236;47.208;7.518;2024-03-06T09:37:19;10.60;93.10
38941;DHT22;43236;47.208;7.518;2024-03-06T09:40:08;10.60;92.80
38941;DHT22;43236;47.208;7.518;2024-03-06T09:42:55;10.60;92.30
38941;DHT22;43236;47.208;7.518;2024-03-06T09:45:43;10.60;91.70
38941;DHT22;43236;47.208;7.518;2024-03-06T09:48:33;10.60;91.20
38941;DHT22;43236;47.208;7.518;2024-03-06T09:51:20;10.70;92.60
38941;DHT22;43236;47.208;7.518;2024-03-06T09:54:10;10.70;92.60
38941;DHT22;43236;47.208;7.518;2024-03-06T09:56:59;10.70;92.40
38941;DHT22;43236;47.208;7.518;2024-03-06T09:59:46;10.70;93.00
38941;DHT22;43236;47.208;7.518;2024-03-06T10:02:37;10.70;92.50
38941;DHT22;43236;47.208;7.518;2024-03-06T10:05:24;10.70;92.40
38941;DHT22;43236;47.208;7.518;2024-03-06T10:08:12;10.80;92.00
38941;DHT22;43236;47.208;7.518;2024-03-06T10:11:03;10.80;92.30
38941;DHT22;43236;47.208;7.518;2024-03-06T10:13:52;10.90;92.30
38941;DHT22;43236;47.208;7.518;2024-03-06T10:16:52;10.90;92.00
38941;DHT22;43236;47.208;7.518;2024-03-06T10:19:39;10.90;91.70
38941;DHT22;43236;47.208;7.518;2024-03-06T10:22:26;11.10;91.60
38941;DHT22;43236;47.208;7.518;2024-03-06T10:25:13;11.10;92.00
38941;DHT22;43236;47.208;7.518;2024-03-06T10:28:06;11.10;91.70
38941;DHT22;43236;47.208;7.518;2024-03-06T10:31:03;11.20;92.10
38941;DHT22;43236;47.208;7.518;2024-03-06T10:33:50;11.20;92.00
38941;DHT22;43236;47.208;7.518;2024-03-06T10:36:39;11.30;91.80
38941;DHT22;43236;47.208;7.518;2024-03-06T10:39:27;11.30;91.60
38941;DHT22;43236;47.208;7.518;2024-03-06T10:42:16;11.30;90.30
38941;DHT22;43236;47.208;7.518;2024-03-06T10:45:06;11.20;90.80
38941;DHT22;43236;47.208;7.518;2024-03-06T10:47:54;11.30;90.60
38941;DHT22;43236;47.208;7.518;2024-03-06T10:50:43;11.30;90.20
38941;DHT22;43236;47.208;7.518;2024-03-06T10:53:31;11.40;90.40
38941;DHT22;43236;47.208;7.518;2024-03-06T10:56:21;11.50;90.20
38941;DHT22;43236;47.208;7.518;2024-03-06T10:59:10;11.50;89.20
38941;DHT22;43236;47.208;7.518;2024-03-06T11:02:00;11.50;88.60
38941;DHT22;43236;47.208;7.518;2024-03-06T11:04:47;11.50;89.80
38941;DHT22;43236;47.208;7.518;2024-03-06T11:07:34;11.50;89.90
38941;DHT22;43236;47.208;7.518;2024-03-06T11:10:32;11.60;90.30
38941;DHT22;43236;47.208;7.518;2024-03-06T11:13:23;11.60;90.70
38941;DHT22;43236;47.208;7.518;2024-03-06T11:16:11;11.60;89.30
38941;DHT22;43236;47.208;7.518;2024-03-06T11:19:09;11.60;87.90
38941;DHT22;43236;47.208;7.518;2024-03-06T11:21:56;11.70;85.60
38941;DHT22;43236;47.208;7.518;2024-03-06T11:24:44;11.70;86.20
38941;DHT22;43236;47.208;7.518;2024-03-06T11:27:31;11.80;85.80
38941;DHT22;43236;47.208;7.518;2024-03-06T11:30:20;11.80;87.10
38941;DHT22;43236;47.208;7.518;2024-03-06T11:33:07;11.90;85.60
38941;DHT22;43236;47.208;7.518;2024-03-06T11:36:16;11.90;83.40
38941;DHT22;43236;47.208;7.518;2024-03-06T11:39:05;11.80;84.40
38941;DHT22;43236;47.208;7.518;2024-03-06T11:41:52;11.90;86.80
38941;DHT22;43236;47.208;7.518;2024-03-06T11:44:53;12.00;86.90
38941;DHT22;43236;47.208;7.518;2024-03-06T11:47:56;12.00;87.90
38941;DHT22;43236;47.208;7.518;2024-03-06T11:50:44;12.00;85.50
38941;DHT22;43236;47.208;7.518;2024-03-06T11:53:34;12.10;84.80
38941;DHT22;43236;47.208;7.518;2024-03-06T11:56:22;12.00;85.10
38941;DHT22;43236;47.208;7.518;2024-03-06T11:59:09;12.00;82.50
38941;DHT22;43236;47.208;7.518;2024-03-06T12:01:58;11.90;80.60
38941;DHT22;43236;47.208;7.518;2024-03-06T12:04:48;11.90;80.50
38941;DHT22;43236;47.208;7.518;2024-03-06T12:07:45;11.90;82.60
38941;DHT22;43236;47.208;7.518;2024-03-06T12:10:37;11.90;84.20
38941;DHT22;43236;47.208;7.518;2024-03-06T12:13:24;12.00;84.10
38941;DHT22;43236;47.208;7.518;2024-03-06T12:16:11;11.90;84.10
38941;DHT22;43236;47.208;7.518;2024-03-06T12:18:59;11.80;85.80
38941;DHT22;43236;47.208;7.518;2024-03-06T12:21:47;11.80;86.20
38941;DHT22;43236;47.208;7.518;2024-03-06T12:24:34;11.60;87.20
38941;DHT22;43236;47.208;7.518;2024-03-06T12:27:23;11.50;87.90
38941;DHT22;43236;47.208;7.518;2024-03-06T12:30:11;11.50;86.80
38941;DHT22;43236;47.208;7.518;2024-03-06T12:32:59;11.50;86.50
38941;DHT22;43236;47.208;7.518;2024-03-06T12:36:00;11.50;86.00
38941;DHT22;43236;47.208;7.518;2024-03-06T12:38:54;11.60;83.60
38941;DHT22;43236;47.208;7.518;2024-03-06T12:41:41;11.60;83.70
38941;DHT22;43236;47.208;7.518;2024-03-06T12:44:29;11.60;85.70
38941;DHT22;43236;47.208;7.518;2024-03-06T12:47:16;11.70;84.50
38941;DHT22;43236;47.208;7.518;2024-03-06T12:50:04;11.70;85.30
38941;DHT22;43236;47.208;7.518;2024-03-06T12:52:53;11.80;85.50
38941;DHT22;43236;47.208;7.518;2024-03-06T12:55:40;11.80;88.60
38941;DHT22;43236;47.208;7.518;2024-03-06T12:58:29;11.80;88.50
38941;DHT22;43236;47.208;7.518;2024-03-06T13:01:18;11.80;86.30
38941;DHT22;43236;47.208;7.518;2024-03-06T13:04:05;11.80;86.50
38941;DHT22;43236;47.208;7.518;2024-03-06T13:06:53;11.80;86.40
38941;DHT22;43236;47.208;7.518;2024-03-06T13:09:40;11.80;86.10
38941;DHT22;43236;47.208;7.518;2024-03-06T13:12:27;11.80;85.90
38941;DHT22;43236;47.208;7.518;2024-03-06T13:15:14;11.80;86.50
38941;DHT22;43236;47.208;7.518;2024-03-06T13:18:03;11.80;87.80
38941;DHT22;43236;47.208;7.518;2024-03-06T13:20:51;11.80;89.70
38941;DHT22;43236;47.208;7.518;2024-03-06T13:23:38;11.80;87.90
38941;DHT22;43236;47.208;7.518;2024-03-06T13:26:25;11.80;87.90
38941;DHT22;43236;47.208;7.518;2024-03-06T13:29:12;11.70;88.90
38941;DHT22;43236;47.208;7.518;2024-03-06T13:31:59;11.70;89.90
38941;DHT22;43236;47.208;7.518;2024-03-06T13:34:48;11.60;90.00
38941;DHT22;43236;47.208;7.518;2024-03-06T13:37:35;11.60;90.20
38941;DHT22;43236;47.208;7.518;2024-03-06T13:40:22;11.70;90.30
38941;DHT22;43236;47.208;7.518;2024-03-06T13:43:11;11.70;90.00
38941;DHT22;43236;47.208;7.518;2024-03-06T13:45:58;11.80;88.80
38941;DHT22;43236;47.208;7.518;2024-03-06T13:48:45;11.80;88.30
38941;DHT22;43236;47.208;7.518;2024-03-06T13:51:34;11.90;88.00
38941;DHT22;43236;47.208;7.518;2024-03-06T13:54:21;11.90;85.00
38941;DHT22;43236;47.208;7.518;2024-03-06T13:57:09;11.90;85.50
38941;DHT22;43236;47.208;7.518;2024-03-06T13:59:57;12.00;86.50
38941;DHT22;43236;47.208;7.518;2024-03-06T14:02:44;12.10;88.00
38941;DHT22;43236;47.208;7.518;2024-03-06T14:05:32;12.10;85.90
38941;DHT22;43236;47.208;7.518;2024-03-06T14:08:21;12.10;86.40
38941;DHT22;43236;47.208;7.518;2024-03-06T14:11:08;12.20;87.10
38941;DHT22;43236;47.208;7.518;2024-03-06T14:13:55;12.20;87.70
38941;DHT22;43236;47.208;7.518;2024-03-06T14:16:42;12.20;87.60
38941;DHT22;43236;47.208;7.518;2024-03-06T14:19:29;12.20;88.10
38941;DHT22;43236;47.208;7.518;2024-03-06T14:22:16;12.20;88.50
38941;DHT22;43236;47.208;7.518;2024-03-06T14:25:05;12.20;88.70
38941;DHT22;43236;47.208;7.518;2024-03-06T14:27:53;12.20;88.70
38941;DHT22;43236;47.208;7.518;2024-03-06T14:30:40;12.20;89.40
38941;DHT22;43236;47.208;7.518;2024-03-06T14:33:27;12.20;90.00
38941;DHT22;43236;47.208;7.518;2024-03-06T14:36:14;12.20;89.40
38941;DHT22;43236;47.208;7.518;2024-03-06T14:39:02;12.10;89.20
38941;DHT22;43236;47.208;7.518;2024-03-06T14:41:50;12.00;89.30
38941;DHT22;43236;47.208;7.518;2024-03-06T14:44:37;12.00;89.20
38941;DHT22;43236;47.208;7.518;2024-03-06T14:47:24;11.90;89.80
38941;DHT22;43236;47.208;7.518;2024-03-06T14:50:12;12.00;89.90
38941;DHT22;43236;47.208;7.518;2024-03-06T14:52:59;12.00;89.90
38941;DHT22;43236;47.208;7.518;2024-03-06T14:55:46;12.00;90.10
38941;DHT22;43236;47.208;7.518;2024-03-06T14:58:35;12.00;90.20
38941;DHT22;43236;47.208;7.518;2024-03-06T15:01:22;12.00;90.20
38941;DHT22;43236;47.208;7.518;2024-03-06T15:04:10;12.00;90.10
38941;DHT22;43236;47.208;7.518;2024-03-06T15:06:58;12.00;90.10
38941;DHT22;43236;47.208;7.518;2024-03-06T15:09:45;12.00;89.70
38941;DHT22;43236;47.208;7.518;2024-03-06T15:12:33;12.00;89.50
38941;DHT22;43236;47.208;7.518;2024-03-06T15:15:21;12.00;89.50
38941;DHT22;43236;47.208;7.518;2024-03-06T15:18:08;12.00;89.90
38941;DHT22;43236;47.208;7.518;2024-03-06T15:20:55;11.90;89.90
38941;DHT22;43236;47.208;7.518;2024-03-06T15:23:42;11.90;90.20
38941;DHT22;43236;47.208;7.518;2024-03-06T15:26:29;11.90;89.40
38941;DHT22;43236;47.208;7.518;2024-03-06T15:29:16;11.90;90.20
38941;DHT22;43236;47.208;7.518;2024-03-06T15:32:05;11.90;90.10
38941;DHT22;43236;47.208;7.518;2024-03-06T15:34:52;11.90;90.30
38941;DHT22;43236;47.208;7.518;2024-03-06T15:37:42;11.90;89.90
38941;DHT22;43236;47.208;7.518;2024-03-06T15:40:29;11.90;90.10
38941;DHT22;43236;47.208;7.518;2024-03-06T15:43:16;11.80;90.40
38941;DHT22;43236;47.208;7.518;2024-03-06T15:46:04;11.90;90.60
38941;DHT22;43236;47.208;7.518;2024-03-06T15:48:52;11.80;90.60
38941;DHT22;43236;47.208;7.518;2024-03-06T15:51:39;11.80;91.00
38941;DHT22;43236;47.208;7.518;2024-03-06T15:54:26;11.80;91.20
38941;DHT22;43236;47.208;7.518;2024-03-06T15:57:13;11.80;91.00
38941;DHT22;43236;47.208;7.518;2024-03-06T16:00:06;11.70;91.30
38941;DHT22;43236;47.208;7.518;2024-03-06T16:02:55;11.60;90.70
38941;DHT22;43236;47.208;7.518;2024-03-06T16:05:45;11.60;90.50
38941;DHT22;43236;47.208;7.518;2024-03-06T16:08:32;11.50;90.80
38941;DHT22;43236;47.208;7.518;2024-03-06T16:11:19;11.50;91.20
38941;DHT22;43236;47.208;7.518;2024-03-06T16:14:06;11.50;91.20
38941;DHT22;43236;47.208;7.518;2024-03-06T16:16:53;11.50;91.20
38941;DHT22;43236;47.208;7.518;2024-03-06T16:19:40;11.50;91.20
38941;DHT22;43236;47.208;7.518;2024-03-06T16:22:28;11.40;91.40
38941;DHT22;43236;47.208;7.518;2024-03-06T16:25:15;11.40;91.30
38941;DHT22;43236;47.208;7.518;2024-03-06T16:28:03;11.30;91.40
38941;DHT22;43236;47.208;7.518;2024-03-06T16:30:50;11.30;91.40
38941;DHT22;43236;47.208;7.518;2024-03-06T16:33:39;11.40;91.70
38941;DHT22;43236;47.208;7.518;2024-03-06T16:36:26;11.30;91.70
38941;DHT22;43236;47.208;7.518;2024-03-06T16:39:15;11.30;92.00
38941;DHT22;43236;47.208;7.518;2024-03-06T16:42:05;11.30;91.90
38941;DHT22;43236;47.208;7.518;2024-03-06T16:44:52;11.30;91.90
38941;DHT22;43236;47.208;7.518;2024-03-06T16:47:40;11.30;92.10
38941;DHT22;43236;47.208;7.518;2024-03-06T16:50:27;11.30;92.20
38941;DHT22;43236;47.208;7.518;2024-03-06T16:53:14;11.20;91.90
38941;DHT22;43236;47.208;7.518;2024-03-06T16:56:03;11.20;91.50
38941;DHT22;43236;47.208;7.518;2024-03-06T16:58:50;11.20;91.70
38941;DHT22;43236;47.208;7.518;2024-03-06T17:01:37;11.10;91.80
38941;DHT22;43236;47.208;7.518;2024-03-06T17:04:24;11.10;91.90
38941;DHT22;43236;47.208;7.518;2024-03-06T17:07:11;11.10;92.10
38941;DHT22;43236;47.208;7.518;2024-03-06T17:09:58;11.10;92.00
38941;DHT22;43236;47.208;7.518;2024-03-06T17:12:48;11.10;92.20
38941;DHT22;43236;47.208;7.518;2024-03-06T17:15:35;11.10;92.00
38941;DHT22;43236;47.208;7.518;2024-03-06T17:18:22;11.00;92.10
38941;DHT22;43236;47.208;7.518;2024-03-06T17:21:09;11.00;92.30
38941;DHT22;43236;47.208;7.518;2024-03-06T17:23:56;11.00;91.80
38941;DHT22;43236;47.208;7.518;2024-03-06T17:26:43;11.00;91.80
38941;DHT22;43236;47.208;7.518;2024-03-06T17:29:32;10.90;92.10
38941;DHT22;43236;47.208;7.518;2024-03-06T17:32:19;10.90;92.10
38941;DHT22;43236;47.208;7.518;2024-03-06T17:35:07;10.90;92.00
38941;DHT22;43236;47.208;7.518;2024-03-06T17:37:55;10.90;92.00
38941;DHT22;43236;47.208;7.518;2024-03-06T17:40:43;10.90;92.20
38941;DHT22;43236;47.208;7.518;2024-03-06T17:43:30;10.90;92.20
38941;DHT22;43236;47.208;7.518;2024-03-06T17:46:18;10.90;92.10
38941;DHT22;43236;47.208;7.518;2024-03-06T17:49:05;10.90;92.30